createdAt,value
2023-04-18T00:02:18.508Z,98249.44
2023-04-18T00:05:21.835Z,98251.22
2023-04-18T00:08:24.686Z,98245.03
2023-04-18T00:11:27.989Z,98250.56
2023-04-18T00:14:30.616Z,98250.56
2023-04-18T00:17:33.511Z,98245.31
2023-04-18T00:20:38.967Z,98245.50
2023-04-18T00:23:41.860Z,98250.81
2023-04-18T00:26:44.341Z,98255.34
2023-04-18T00:29:47.541Z,98260.72
2023-04-18T00:32:51.739Z,98254.66
2023-04-18T00:35:54.610Z,98261.63
2023-04-18T00:38:57.178Z,98260.78
2023-04-18T00:42:01.243Z,98262.53
2023-04-18T00:45:04.116Z,98267.00
2023-04-18T00:48:07.793Z,98259.84
2023-04-18T00:51:11.555Z,98267.09
2023-04-18T00:54:14.934Z,98265.22
2023-04-18T00:57:17.787Z,98264.31
2023-04-18T01:00:22.018Z,98271.47
2023-04-18T01:03:26.151Z,98268.03
2023-04-18T01:06:29.650Z,98261.56
2023-04-18T01:09:32.559Z,98262.53
2023-04-18T01:12:37.358Z,98264.25
2023-04-18T01:15:44.068Z,98255.47
2023-04-18T01:18:47.274Z,98251.91
2023-04-18T01:21:50.320Z,98249.22
2023-04-18T01:24:53.293Z,98251.84
2023-04-18T01:27:58.784Z,98253.72
2023-04-18T01:31:02.385Z,98247.50
2023-04-18T01:34:05.583Z,98254.59
2023-04-18T01:37:08.465Z,98259.09
2023-04-18T01:40:11.580Z,98257.34
2023-04-18T01:43:14.688Z,98250.25
2023-04-18T01:46:17.305Z,98253.00
2023-04-18T01:49:20.605Z,98254.81
2023-04-18T01:52:24.942Z,98255.63
2023-04-18T01:55:27.798Z,98256.59
2023-04-18T01:58:30.418Z,98251.97
2023-04-18T02:01:33.259Z,98252.94
2023-04-18T02:04:36.151Z,98252.03
2023-04-18T02:07:39.004Z,98254.72
2023-04-18T02:10:42.613Z,98252.19
2023-04-18T02:13:45.421Z,98224.25
2023-04-18T02:16:48.352Z,98261.84
2023-04-18T02:19:51.886Z,98261.00
2023-04-18T02:22:54.865Z,98257.50
2023-04-18T02:25:57.453Z,98256.53
2023-04-18T02:29:00.724Z,98261.00
2023-04-18T02:32:05.247Z,98258.44
2023-04-18T02:35:08.324Z,98257.63
2023-04-18T02:38:10.936Z,98257.63
2023-04-18T02:41:17.428Z,98245.41
2023-04-18T02:44:20.002Z,98254.06
2023-04-18T02:47:23.306Z,98257.75
2023-04-18T02:50:27.079Z,98263.25
2023-04-18T02:53:30.739Z,98259.75
2023-04-18T02:56:33.511Z,98263.41
2023-04-18T02:59:38.551Z,98260.94
2023-04-18T03:02:42.039Z,98263.41
2023-04-18T03:05:45.976Z,98270.75
2023-04-18T03:08:48.579Z,98255.97
2023-04-18T03:11:51.778Z,98276.38
2023-04-18T03:14:55.819Z,98273.75
2023-04-18T03:17:59.001Z,98275.56
2023-04-18T03:21:02.445Z,98276.50
2023-04-18T03:24:12.364Z,98279.25
2023-04-18T03:27:15.976Z,98278.53
2023-04-18T03:30:19.494Z,98278.53
2023-04-18T03:33:24.544Z,98275.84
2023-04-18T03:36:29.950Z,98270.47
2023-04-18T03:39:32.455Z,98272.25
2023-04-18T03:42:36.304Z,98280.31
2023-04-18T03:45:38.954Z,98278.66
2023-04-18T03:48:41.887Z,98275.16
2023-04-18T03:51:47.998Z,98282.41
2023-04-18T03:54:51.193Z,98276.97
2023-04-18T03:57:55.128Z,98281.34
2023-04-18T04:00:58.911Z,98282.34
2023-04-18T04:04:03.051Z,98275.00
2023-04-18T04:07:05.877Z,98282.25
2023-04-18T04:10:09.248Z,98285.75
2023-04-18T04:13:12.050Z,98284.94
2023-04-18T04:16:15.597Z,98291.06
2023-04-18T04:19:19.237Z,98292.78
2023-04-18T04:22:23.202Z,98297.19
2023-04-18T04:25:29.687Z,98302.44
2023-04-18T04:28:33.042Z,98297.00
2023-04-18T04:31:36.679Z,98309.44
2023-04-18T04:34:41.486Z,98306.56
2023-04-18T04:37:45.249Z,98308.31
2023-04-18T04:40:49.759Z,98317.22
2023-04-18T04:43:53.917Z,98310.88
2023-04-18T04:46:57.589Z,98319.75
2023-04-18T04:50:00.891Z,98317.84
2023-04-18T04:53:04.564Z,98320.53
2023-04-18T04:56:07.291Z,98328.53
2023-04-18T04:59:10.244Z,98326.66
2023-04-18T05:02:13.968Z,98327.00
2023-04-18T05:05:16.872Z,98327.75
2023-04-18T05:08:19.900Z,98321.91
2023-04-18T05:11:23.566Z,98338.13
2023-04-18T05:14:27.762Z,98338.87
2023-04-18T05:17:31.263Z,98343.09
2023-04-18T05:20:34.419Z,98344.53
2023-04-18T05:23:37.448Z,98348.78
2023-04-18T05:26:40.787Z,98352.34
2023-04-18T05:29:44.089Z,98345.69
2023-04-18T05:32:46.999Z,98353.56
2023-04-18T05:35:50.629Z,98352.88
2023-04-18T05:38:53.721Z,98357.41
2023-04-18T05:41:56.912Z,98353.75
2023-04-18T05:44:59.926Z,98356.25
2023-04-18T05:48:03.073Z,98360.53
2023-04-18T05:51:05.971Z,98368.38
2023-04-18T05:54:09.903Z,98361.84
2023-04-18T05:57:12.446Z,98361.59
2023-04-18T06:00:17.158Z,98362.16
2023-04-18T06:03:20.260Z,98366.38
2023-04-18T06:06:23.070Z,98361.75
2023-04-18T06:09:26.487Z,98366.94
2023-04-18T06:12:29.064Z,98368.47
2023-04-18T06:15:31.834Z,98372.03
2023-04-18T06:18:34.609Z,98373.69
2023-04-18T06:21:37.725Z,98375.44
2023-04-18T06:24:40.419Z,98378.13
2023-04-18T06:27:43.348Z,98380.03
2023-04-18T06:30:45.973Z,98376.38
2023-04-18T06:33:48.746Z,98380.84
2023-04-18T06:36:51.581Z,98388.84
2023-04-18T06:39:54.631Z,98383.47
2023-04-18T06:42:57.217Z,98377.91
2023-04-18T06:46:00.082Z,98383.97
2023-04-18T06:49:06.880Z,98387.19
2023-04-18T06:52:09.697Z,98383.34
2023-04-18T06:55:13.893Z,98383.91
2023-04-18T06:58:16.995Z,98376.56
2023-04-18T07:01:19.718Z,98387.03
2023-04-18T07:04:22.925Z,98378.88
2023-04-18T07:07:26.481Z,98385.66
2023-04-18T07:10:29.856Z,98383.56
2023-04-18T07:13:32.828Z,98387.84
2023-04-18T07:16:35.856Z,98388.25
2023-04-18T07:19:38.427Z,98389.84
2023-04-18T07:22:41.499Z,98392.25
2023-04-18T07:25:44.070Z,98393.59
2023-04-18T07:28:47.075Z,98408.72
2023-04-18T07:31:50.042Z,98407.37
2023-04-18T07:34:52.876Z,98403.84
2023-04-18T07:37:55.513Z,98410.22
2023-04-18T07:40:59.611Z,98410.47
2023-04-18T07:44:02.767Z,98411.19
2023-04-18T07:47:11.254Z,98411.75
2023-04-18T07:50:13.804Z,98412.53
2023-04-18T07:53:16.880Z,98418.63
2023-04-18T07:56:19.654Z,98425.47
2023-04-18T07:59:22.729Z,98424.47
2023-04-18T08:02:25.756Z,98425.13
2023-04-18T08:05:28.895Z,98418.06
2023-04-18T08:08:31.486Z,98384.72
2023-04-18T08:11:34.480Z,98422.87
2023-04-18T08:14:37.079Z,98429.94
2023-04-18T08:17:42.656Z,98429.06
2023-04-18T08:20:45.502Z,98431.34
2023-04-18T08:23:48.506Z,98424.00
2023-04-18T08:26:51.070Z,98421.06
2023-04-18T08:29:54.292Z,98422.53
2023-04-18T08:32:57.000Z,98430.16
2023-04-18T08:35:59.771Z,98421.66
2023-04-18T08:39:02.690Z,98434.41
2023-04-18T08:42:06.694Z,98435.53
2023-04-18T08:45:09.681Z,98439.31
2023-04-18T08:48:16.313Z,98439.84
2023-04-18T08:51:18.856Z,98435.44
2023-04-18T08:54:22.568Z,98436.56
2023-04-18T08:57:27.014Z,98442.03
2023-04-18T09:00:30.556Z,98441.69
2023-04-18T09:03:43.182Z,98441.09
2023-04-18T09:06:53.170Z,98447.69
2023-04-18T09:09:57.369Z,98444.28
2023-04-18T09:13:03.247Z,98430.28
2023-04-18T09:16:06.627Z,98429.59
2023-04-18T09:19:11.965Z,98442.00
2023-04-18T09:22:16.233Z,98445.84
2023-04-18T09:25:44.150Z,98436.97
2023-04-18T09:28:53.868Z,98433.38
2023-04-18T09:32:01.495Z,98442.75
2023-04-18T09:35:05.511Z,98436.28
2023-04-18T09:38:08.799Z,98441.22
2023-04-18T09:41:12.526Z,98437.50
2023-04-18T09:44:17.125Z,98431.63
2023-04-18T09:47:20.004Z,98436.16
2023-04-18T09:50:22.929Z,98430.72
2023-04-18T09:53:25.958Z,98434.03
2023-04-18T09:56:31.987Z,98436.34
2023-04-18T09:59:42.729Z,98434.50
2023-04-18T10:02:53.221Z,98426.75
2023-04-18T10:05:57.799Z,98430.44
2023-04-18T10:09:03.364Z,98436.25
2023-04-18T10:12:06.380Z,98439.22
2023-04-18T10:15:10.185Z,98445.28
2023-04-18T10:18:18.653Z,98439.19
2023-04-18T10:21:21.893Z,98441.47
2023-04-18T10:24:54.122Z,98438.44
2023-04-18T10:28:00.875Z,98449.25
2023-04-18T10:31:04.199Z,98450.97
2023-04-18T10:34:07.028Z,98453.13
2023-04-18T10:37:09.877Z,98446.69
2023-04-18T10:40:12.441Z,98411.09
2023-04-18T10:43:15.568Z,98453.34
2023-04-18T10:46:30.929Z,98451.22
2023-04-18T10:49:38.532Z,98448.13
2023-04-18T10:52:41.806Z,98448.75
2023-04-18T10:55:48.948Z,98432.13
2023-04-18T10:58:52.982Z,98448.97
2023-04-18T11:02:17.991Z,98429.41
2023-04-18T11:05:22.650Z,98431.37
2023-04-18T11:08:25.611Z,98439.59
2023-04-18T11:11:28.137Z,98436.44
2023-04-18T11:14:43.980Z,98428.09
2023-04-18T11:17:46.492Z,98431.13
2023-04-18T11:20:50.763Z,98437.22
2023-04-18T11:23:55.491Z,98436.47
2023-04-18T11:26:58.402Z,98426.28
2023-04-18T11:30:00.911Z,98431.69
2023-04-18T11:33:11.642Z,98440.25
2023-04-18T11:36:14.597Z,98442.47
2023-04-18T11:39:18.466Z,98446.81
2023-04-18T11:42:21.279Z,98433.31
2023-04-18T11:45:24.060Z,98435.84
2023-04-18T11:48:36.761Z,98444.28
2023-04-18T11:51:39.688Z,98449.25
2023-04-18T11:54:44.226Z,98445.47
2023-04-18T11:57:57.713Z,98442.19
2023-04-18T12:01:02.741Z,98446.13
2023-04-18T12:04:07.309Z,98452.50
2023-04-18T12:07:10.558Z,98453.25
2023-04-18T12:10:19.598Z,98457.84
2023-04-18T12:13:29.336Z,98449.44
2023-04-18T12:16:33.499Z,98443.56
2023-04-18T12:19:36.283Z,98445.06
2023-04-18T12:22:40.014Z,98439.94
2023-04-18T12:25:42.594Z,98452.63
2023-04-18T12:28:46.058Z,98443.22
2023-04-18T12:31:48.580Z,98451.25
2023-04-18T12:34:51.417Z,98457.62
2023-04-18T12:37:55.900Z,98460.75
2023-04-18T12:40:58.977Z,98449.44
2023-04-18T12:44:01.709Z,98455.59
2023-04-18T12:47:04.748Z,98451.53
2023-04-18T12:50:11.245Z,98454.72
2023-04-18T12:53:14.432Z,98449.41
2023-04-18T12:56:16.951Z,98447.78
2023-04-18T12:59:19.793Z,98448.47
2023-04-18T13:02:23.508Z,98448.47
2023-04-18T13:05:29.864Z,98446.53
2023-04-18T13:08:34.959Z,98442.94
2023-04-18T13:11:37.917Z,98443.38
2023-04-18T13:14:42.255Z,98443.38
2023-04-18T13:17:45.092Z,98441.25
2023-04-18T13:20:47.861Z,98445.13
2023-04-18T13:23:50.613Z,98436.63
2023-04-18T13:26:53.189Z,98442.94
2023-04-18T13:29:57.252Z,98443.25
2023-04-18T13:32:59.838Z,98440.44
2023-04-18T13:36:02.651Z,98438.69
2023-04-18T13:39:05.756Z,98443.12
2023-04-18T13:42:09.123Z,98432.19
2023-04-18T13:45:11.790Z,98437.22
2023-04-18T13:48:16.263Z,98452.50
2023-04-18T13:51:19.214Z,98431.78
2023-04-18T13:54:22.129Z,98426.56
2023-04-18T13:57:24.686Z,98444.56
2023-04-18T14:00:27.856Z,98447.50
2023-04-18T14:03:30.984Z,98449.59
2023-04-18T14:06:34.698Z,98435.53
2023-04-18T14:09:37.678Z,98440.09
2023-04-18T14:12:40.384Z,98442.06
2023-04-18T14:15:43.261Z,98426.72
2023-04-18T14:18:46.185Z,98445.41
2023-04-18T14:21:49.089Z,98440.44
2023-04-18T14:24:53.774Z,98439.28
2023-04-18T14:28:09.472Z,98442.84
2023-04-18T14:31:15.618Z,98443.59
2023-04-18T14:34:18.910Z,98447.06
2023-04-18T14:37:22.302Z,98433.16
2023-04-18T14:40:25.199Z,98448.66
2023-04-18T14:43:27.944Z,98451.06
2023-04-18T14:46:30.939Z,98456.72
2023-04-18T14:49:33.566Z,98446.06
2023-04-18T14:52:36.767Z,98449.66
2023-04-18T14:55:39.291Z,98443.88
2023-04-18T14:58:43.033Z,98445.41
2023-04-18T15:01:45.800Z,98432.69
2023-04-18T15:04:49.236Z,98439.63
2023-04-18T15:07:52.189Z,98438.47
2023-04-18T15:10:55.061Z,98443.88
2023-04-18T15:13:57.578Z,98438.53
2023-04-18T15:17:00.491Z,98434.91
2023-04-18T15:20:06.252Z,98441.25
2023-04-18T15:23:11.697Z,98434.38
2023-04-18T15:26:14.251Z,98436.00
2023-04-18T15:29:17.131Z,98430.37
2023-04-18T15:32:20.089Z,98423.16
2023-04-18T15:35:23.112Z,98435.47
2023-04-18T15:38:25.625Z,98437.34
2023-04-18T15:41:28.635Z,98444.19
2023-04-18T15:44:31.303Z,98438.63
2023-04-18T15:47:34.548Z,98444.28
2023-04-18T15:50:37.632Z,98445.56
2023-04-18T15:53:40.990Z,98442.06
2023-04-18T15:56:44.745Z,98445.97
2023-04-18T15:59:48.015Z,98450.28
2023-04-18T16:02:51.347Z,98441.75
2023-04-18T16:05:54.266Z,98444.38
2023-04-18T16:08:57.305Z,98446.41
2023-04-18T16:12:01.491Z,98437.28
2023-04-18T16:15:10.569Z,98441.28
2023-04-18T16:18:13.388Z,98438.69
2023-04-18T16:21:16.661Z,98440.91
2023-04-18T16:24:20.305Z,98442.88
2023-04-18T16:27:22.831Z,98435.81
2023-04-18T16:30:25.790Z,98445.69
2023-04-18T16:33:28.483Z,98453.25
2023-04-18T16:36:34.476Z,98452.56
2023-04-18T16:39:38.177Z,98454.59
2023-04-18T16:42:41.612Z,98450.38
2023-04-18T16:45:44.178Z,98448.72
2023-04-18T16:48:47.361Z,98451.72
2023-04-18T16:51:51.051Z,98448.47
2023-04-18T16:54:54.077Z,98451.66
2023-04-18T16:57:56.545Z,98452.03
2023-04-18T17:01:01.775Z,98460.56
2023-04-18T17:04:05.034Z,98456.81
2023-04-18T17:07:08.131Z,98453.09
2023-04-18T17:10:11.448Z,98445.22
2023-04-18T17:13:14.982Z,98452.31
2023-04-18T17:16:18.181Z,98460.41
2023-04-18T17:19:21.358Z,98448.38
2023-04-18T17:22:23.915Z,98458.19
2023-04-18T17:25:26.763Z,98452.84
2023-04-18T17:28:30.686Z,98462.09
2023-04-18T17:31:34.294Z,98455.50
2023-04-18T17:34:36.977Z,98439.19
2023-04-18T17:37:40.529Z,98459.97
2023-04-18T17:40:43.116Z,98461.28
2023-04-18T17:43:46.735Z,98456.41
2023-04-18T17:46:50.540Z,98465.75
2023-04-18T17:49:53.638Z,98463.13
2023-04-18T17:52:56.443Z,98466.16
2023-04-18T17:56:00.931Z,98472.78
2023-04-18T17:59:03.900Z,98475.84
2023-04-18T18:02:07.236Z,98474.25
2023-04-18T18:05:13.805Z,98478.19
2023-04-18T18:08:17.253Z,98482.81
2023-04-18T18:11:21.443Z,98485.69
2023-04-18T18:14:24.899Z,98487.44
2023-04-18T18:17:29.007Z,98483.94
2023-04-18T18:20:32.106Z,98502.47
2023-04-18T18:23:36.198Z,98500.41
2023-04-18T18:26:39.171Z,98504.41
2023-04-18T18:29:42.810Z,98514.59
2023-04-18T18:32:45.840Z,98512.31
2023-04-18T18:35:49.001Z,98524.28
2023-04-18T18:38:53.246Z,98523.72
2023-04-18T18:41:58.231Z,98514.87
2023-04-18T18:45:04.540Z,98525.16
2023-04-18T18:48:07.825Z,98529.91
2023-04-18T18:51:11.612Z,98533.28
2023-04-18T18:54:15.561Z,98532.88
2023-04-18T18:57:18.310Z,98528.28
2023-04-18T19:00:21.597Z,98535.19
2023-04-18T19:03:25.258Z,98533.47
2023-04-18T19:06:29.221Z,98532.75
2023-04-18T19:09:31.998Z,98531.78
2023-04-18T19:12:35.658Z,98538.16
2023-04-18T19:15:38.547Z,98534.94
2023-04-18T19:18:46.842Z,98535.03
2023-04-18T19:21:50.111Z,98528.75
2023-04-18T19:24:53.376Z,98527.44
2023-04-18T19:27:56.112Z,98529.31
2023-04-18T19:30:59.381Z,98531.84
2023-04-18T19:34:02.535Z,98532.09
2023-04-18T19:37:05.817Z,98539.16
2023-04-18T19:40:09.887Z,98536.47
2023-04-18T19:43:13.173Z,98540.09
2023-04-18T19:46:16.115Z,98547.13
2023-04-18T19:49:19.581Z,98537.25
2023-04-18T19:52:22.527Z,98546.22
2023-04-18T19:55:25.648Z,98545.16
2023-04-18T19:58:44.612Z,98552.34
2023-04-18T20:01:48.301Z,98542.59
2023-04-18T20:04:51.625Z,98547.13
2023-04-18T20:07:54.704Z,98554.44
2023-04-18T20:10:58.095Z,98555.53
2023-04-18T20:14:01.040Z,98553.81
2023-04-18T20:17:04.232Z,98496.66
2023-04-18T20:20:09.309Z,98547.94
2023-04-18T20:23:14.465Z,98554.03
2023-04-18T20:26:17.285Z,98551.59
2023-04-18T20:29:20.879Z,98552.69
2023-04-18T20:32:24.063Z,98554.81
2023-04-18T20:35:29.621Z,98550.66
2023-04-18T20:38:32.795Z,98560.84
2023-04-18T20:41:36.980Z,98554.38
2023-04-18T20:44:40.247Z,98565.44
2023-04-18T20:47:43.507Z,98562.91
2023-04-18T20:50:51.333Z,98556.62
2023-04-18T20:53:55.005Z,98561.13
2023-04-18T20:56:57.592Z,98552.25
2023-04-18T21:00:00.761Z,98553.28
2023-04-18T21:03:03.960Z,98554.22
2023-04-18T21:06:06.994Z,98552.69
2023-04-18T21:09:09.555Z,98556.41
2023-04-18T21:12:17.640Z,98551.09
2023-04-18T21:15:20.306Z,98542.12
2023-04-18T21:18:23.536Z,98542.94
2023-04-18T21:21:27.282Z,98536.88
2023-04-18T21:24:30.406Z,98542.19
2023-04-18T21:27:33.097Z,98545.63
2023-04-18T21:30:36.251Z,98516.16
2023-04-18T21:33:38.913Z,98535.72
2023-04-18T21:36:41.962Z,98535.63
2023-04-18T21:39:44.785Z,98535.63
2023-04-18T21:42:51.046Z,98531.03
2023-04-18T21:45:53.565Z,98527.53
2023-04-18T21:48:56.590Z,98525.78
2023-04-18T21:51:59.322Z,98524.31
2023-04-18T21:55:02.385Z,98519.53
2023-04-18T21:58:04.936Z,98524.13
2023-04-18T22:01:08.153Z,98528.66
2023-04-18T22:04:12.371Z,98518.94
2023-04-18T22:07:15.741Z,98520.75
2023-04-18T22:10:18.989Z,98515.44
2023-04-18T22:13:25.299Z,98513.03
2023-04-18T22:16:29.022Z,98513.03
2023-04-18T22:19:32.594Z,98519.38
2023-04-18T22:22:35.840Z,98515.88
2023-04-18T22:25:38.382Z,98513.25
2023-04-18T22:28:41.550Z,98509.59
2023-04-18T22:31:44.185Z,98501.53
2023-04-18T22:34:47.137Z,98504.53
2023-04-18T22:37:49.737Z,98497.44
2023-04-18T22:40:54.631Z,98497.59
2023-04-18T22:43:57.566Z,98493.25
2023-04-18T22:47:00.887Z,98489.63
2023-04-18T22:50:03.643Z,98489.72
2023-04-18T22:53:06.500Z,98483.50
2023-04-18T22:56:09.012Z,98486.28
2023-04-18T22:59:11.847Z,98481.97
2023-04-18T23:02:14.652Z,98480.03
2023-04-18T23:05:17.795Z,98472.97
2023-04-18T23:08:22.517Z,98472.16
2023-04-18T23:11:26.262Z,98454.59
2023-04-18T23:14:29.312Z,98455.41
2023-04-18T23:17:32.321Z,98467.72
2023-04-18T23:20:35.047Z,98456.06
2023-04-18T23:23:38.073Z,98459.69
2023-04-18T23:26:41.080Z,98445.47
2023-04-18T23:29:47.288Z,98446.56
2023-04-18T23:32:49.982Z,98440.31
2023-04-18T23:35:52.865Z,98434.12
2023-04-18T23:38:55.568Z,98432.31
2023-04-18T23:41:58.628Z,98429.09
2023-04-18T23:45:01.560Z,98428.06
2023-04-18T23:48:05.098Z,98431.69
2023-04-18T23:51:07.865Z,98388.78
2023-04-18T23:54:10.938Z,98421.09
2023-04-18T23:57:13.465Z,98422.13
